sensor_id;sensor_type;location;lat;lon;timestamp;pressure;altitude;pressure_sealevel;temperature;humidity
47636;BME280;33364;50.766;15.338;2022-10-17T00:01:28;95753.28;;;11.59;100.00
47636;BME280;33364;50.766;15.338;2022-10-17T00:03:53;95756.81;;;11.58;100.00
47636;BME280;33364;50.766;15.338;2022-10-17T00:06:19;95751.31;;;11.62;100.00
47636;BME280;33364;50.766;15.338;2022-10-17T00:08:44;95756.16;;;11.67;100.00
47636;BME280;33364;50.766;15.338;2022-10-17T00:11:18;95759.47;;;11.69;100.00
47636;BME280;33364;50.766;15.338;2022-10-17T00:13:46;95767.47;;;11.66;100.00
47636;BME280;33364;50.766;15.338;2022-10-17T00:16:13;95764.16;;;11.64;100.00
47636;BME280;33364;50.766;15.338;2022-10-17T00:18:38;95772.25;;;11.59;100.00
47636;BME280;33364;50.766;15.338;2022-10-17T00:21:04;95767.31;;;11.56;100.00
47636;BME280;33364;50.766;15.338;2022-10-17T00:23:30;95774.47;;;11.53;100.00
47636;BME280;33364;50.766;15.338;2022-10-17T00:26:00;95767.84;;;11.49;100.00
47636;BME280;33364;50.766;15.338;2022-10-17T00:28:26;95775.84;;;11.46;100.00
47636;BME280;33364;50.766;15.338;2022-10-17T00:30:59;95768.91;;;11.46;100.00
47636;BME280;33364;50.766;15.338;2022-10-17T00:33:27;95766.75;;;11.40;100.00
47636;BME280;33364;50.766;15.338;2022-10-17T00:36:08;95758.47;;;11.35;100.00
47636;BME280;33364;50.766;15.338;2022-10-17T00:38:35;95764.56;;;11.34;100.00
47636;BME280;33364;50.766;15.338;2022-10-17T00:41:01;95763.84;;;11.32;100.00
47636;BME280;33364;50.766;15.338;2022-10-17T00:43:27;95755.00;;;11.34;100.00
47636;BME280;33364;50.766;15.338;2022-10-17T00:45:55;95753.19;;;11.24;100.00
47636;BME280;33364;50.766;15.338;2022-10-17T00:48:23;95754.13;;;11.23;100.00
47636;BME280;33364;50.766;15.338;2022-10-17T00:50:50;95757.78;;;11.20;100.00
47636;BME280;33364;50.766;15.338;2022-10-17T00:53:16;95758.47;;;11.22;100.00
47636;BME280;33364;50.766;15.338;2022-10-17T00:55:50;95766.88;;;11.13;100.00
47636;BME280;33364;50.766;15.338;2022-10-17T00:58:17;95756.44;;;11.14;100.00
47636;BME280;33364;50.766;15.338;2022-10-17T01:00:46;95756.53;;;11.13;100.00
47636;BME280;33364;50.766;15.338;2022-10-17T01:03:12;95763.34;;;11.14;100.00
47636;BME280;33364;50.766;15.338;2022-10-17T01:05:39;95767.19;;;11.08;100.00
47636;BME280;33364;50.766;15.338;2022-10-17T01:08:06;95767.44;;;11.05;100.00
47636;BME280;33364;50.766;15.338;2022-10-17T01:10:41;95762.78;;;10.98;100.00
47636;BME280;33364;50.766;15.338;2022-10-17T01:13:29;95756.66;;;10.99;100.00
47636;BME280;33364;50.766;15.338;2022-10-17T01:18:54;95765.34;;;10.98;100.00
47636;BME280;33364;50.766;15.338;2022-10-17T01:32:15;95772.13;;;10.75;100.00
47636;BME280;33364;50.766;15.338;2022-10-17T01:34:56;95761.13;;;10.71;100.00
47636;BME280;33364;50.766;15.338;2022-10-17T01:37:31;95757.50;;;10.74;100.00
47636;BME280;33364;50.766;15.338;2022-10-17T01:40:15;95759.19;;;10.75;100.00
47636;BME280;33364;50.766;15.338;2022-10-17T01:43:10;95760.00;;;10.75;100.00
47636;BME280;33364;50.766;15.338;2022-10-17T01:48:35;95758.75;;;10.68;100.00
47636;BME280;33364;50.766;15.338;2022-10-17T01:51:13;95764.66;;;10.70;100.00
47636;BME280;33364;50.766;15.338;2022-10-17T01:53:51;95756.91;;;10.70;100.00
47636;BME280;33364;50.766;15.338;2022-10-17T01:56:19;95758.16;;;10.65;100.00
47636;BME280;33364;50.766;15.338;2022-10-17T01:58:50;95750.97;;;10.68;100.00
47636;BME280;33364;50.766;15.338;2022-10-17T02:01:18;95756.06;;;10.70;100.00
47636;BME280;33364;50.766;15.338;2022-10-17T02:03:47;95748.31;;;10.70;100.00
47636;BME280;33364;50.766;15.338;2022-10-17T02:06:14;95753.50;;;10.70;100.00
47636;BME280;33364;50.766;15.338;2022-10-17T02:08:43;95752.84;;;10.66;100.00
47636;BME280;33364;50.766;15.338;2022-10-17T02:11:20;95752.97;;;10.65;100.00
47636;BME280;33364;50.766;15.338;2022-10-17T02:19:24;95759.06;;;10.63;100.00
47636;BME280;33364;50.766;15.338;2022-10-17T02:27:10;95771.78;;;10.54;100.00
47636;BME280;33364;50.766;15.338;2022-10-17T02:29:47;95775.13;;;10.56;100.00
47636;BME280;33364;50.766;15.338;2022-10-17T02:32:29;95784.13;;;10.50;100.00
47636;BME280;33364;50.766;15.338;2022-10-17T02:35:00;95775.09;;;10.43;100.00
47636;BME280;33364;50.766;15.338;2022-10-17T02:37:28;95774.50;;;10.40;100.00
47636;BME280;33364;50.766;15.338;2022-10-17T02:39:56;95784.41;;;10.33;100.00
47636;BME280;33364;50.766;15.338;2022-10-17T02:42:24;95775.09;;;10.30;100.00
47636;BME280;33364;50.766;15.338;2022-10-17T02:44:52;95777.47;;;10.33;100.00
47636;BME280;33364;50.766;15.338;2022-10-17T02:47:27;95776.22;;;10.26;100.00
47636;BME280;33364;50.766;15.338;2022-10-17T02:49:56;95782.22;;;10.27;100.00
47636;BME280;33364;50.766;15.338;2022-10-17T02:52:45;95780.84;;;10.21;100.00
47636;BME280;33364;50.766;15.338;2022-10-17T02:55:21;95783.31;;;10.23;100.00
47636;BME280;33364;50.766;15.338;2022-10-17T02:57:56;95780.56;;;10.26;100.00
47636;BME280;33364;50.766;15.338;2022-10-17T03:00:25;95781.28;;;10.28;100.00
47636;BME280;33364;50.766;15.338;2022-10-17T03:02:52;95786.38;;;10.29;100.00
47636;BME280;33364;50.766;15.338;2022-10-17T03:05:21;95786.47;;;10.28;100.00
47636;BME280;33364;50.766;15.338;2022-10-17T03:07:47;95786.56;;;10.26;100.00
47636;BME280;33364;50.766;15.338;2022-10-17T03:10:13;95786.94;;;10.20;100.00
47636;BME280;33364;50.766;15.338;2022-10-17T03:12:38;95787.66;;;10.22;100.00
47636;BME280;33364;50.766;15.338;2022-10-17T03:15:05;95779.91;;;10.22;100.00
47636;BME280;33364;50.766;15.338;2022-10-17T03:17:31;95778.91;;;10.25;100.00
47636;BME280;33364;50.766;15.338;2022-10-17T03:19:57;95780.56;;;10.26;100.00
47636;BME280;33364;50.766;15.338;2022-10-17T03:22:22;95784.38;;;10.20;100.00
47636;BME280;33364;50.766;15.338;2022-10-17T03:24:48;95781.50;;;10.25;100.00
47636;BME280;33364;50.766;15.338;2022-10-17T03:27:13;95784.56;;;10.17;100.00
47636;BME280;33364;50.766;15.338;2022-10-17T03:29:39;95787.25;;;10.16;100.00
47636;BME280;33364;50.766;15.338;2022-10-17T03:32:05;95784.84;;;10.12;100.00
47636;BME280;33364;50.766;15.338;2022-10-17T03:34:30;95787.44;;;10.12;100.00
47636;BME280;33364;50.766;15.338;2022-10-17T03:36:56;95784.84;;;10.12;100.00
47636;BME280;33364;50.766;15.338;2022-10-17T03:39:22;95783.09;;;10.13;100.00
47636;BME280;33364;50.766;15.338;2022-10-17T03:41:47;95784.56;;;10.17;100.00
47636;BME280;33364;50.766;15.338;2022-10-17T03:44:13;95785.97;;;10.08;100.00
47636;BME280;33364;50.766;15.338;2022-10-17T03:46:38;95784.09;;;9.98;100.00
47636;BME280;33364;50.766;15.338;2022-10-17T03:49:04;95785.31;;;9.92;100.00
47636;BME280;33364;50.766;15.338;2022-10-17T03:51:31;95800.19;;;9.89;100.00
47636;BME280;33364;50.766;15.338;2022-10-17T03:53:57;95789.22;;;9.85;100.00
47636;BME280;33364;50.766;15.338;2022-10-17T03:56:24;95797.06;;;9.83;100.00
47636;BME280;33364;50.766;15.338;2022-10-17T03:58:50;95797.47;;;9.77;100.00
47636;BME280;33364;50.766;15.338;2022-10-17T04:01:17;95807.16;;;9.74;100.00
47636;BME280;33364;50.766;15.338;2022-10-17T04:03:43;95807.16;;;9.74;100.00
47636;BME280;33364;50.766;15.338;2022-10-17T04:06:11;95803.03;;;9.71;100.00
47636;BME280;33364;50.766;15.338;2022-10-17T04:08:37;95797.13;;;9.69;100.00
47636;BME280;33364;50.766;15.338;2022-10-17T04:11:04;95802.31;;;9.69;100.00
47636;BME280;33364;50.766;15.338;2022-10-17T04:13:31;95795.66;;;9.65;100.00
47636;BME280;33364;50.766;15.338;2022-10-17T04:15:59;95797.31;;;9.66;100.00
47636;BME280;33364;50.766;15.338;2022-10-17T04:18:25;95792.44;;;9.62;100.00
47636;BME280;33364;50.766;15.338;2022-10-17T04:20:51;95798.44;;;9.62;100.00
47636;BME280;33364;50.766;15.338;2022-10-17T04:23:17;95800.28;;;9.60;100.00
47636;BME280;33364;50.766;15.338;2022-10-17T04:25:43;95806.06;;;9.64;100.00
47636;BME280;33364;50.766;15.338;2022-10-17T04:28:09;95793.47;;;9.59;100.00
47636;BME280;33364;50.766;15.338;2022-10-17T04:30:34;95792.63;;;9.58;100.00
47636;BME280;33364;50.766;15.338;2022-10-17T04:33:00;95799.53;;;9.58;100.00
47636;BME280;33364;50.766;15.338;2022-10-17T04:35:26;95804.00;;;9.56;100.00
47636;BME280;33364;50.766;15.338;2022-10-17T04:37:51;95804.09;;;9.54;100.00
47636;BME280;33364;50.766;15.338;2022-10-17T04:40:36;95812.84;;;9.52;100.00
47636;BME280;33364;50.766;15.338;2022-10-17T04:43:02;95806.84;;;9.51;100.00
47636;BME280;33364;50.766;15.338;2022-10-17T04:45:27;95814.78;;;9.48;100.00
47636;BME280;33364;50.766;15.338;2022-10-17T04:47:53;95819.53;;;9.42;100.00
47636;BME280;33364;50.766;15.338;2022-10-17T04:50:18;95823.69;;;9.44;100.00
47636;BME280;33364;50.766;15.338;2022-10-17T04:52:44;95816.75;;;9.45;100.00
47636;BME280;33364;50.766;15.338;2022-10-17T04:55:09;95819.13;;;9.48;100.00
47636;BME280;33364;50.766;15.338;2022-10-17T04:57:35;95816.19;;;9.54;100.00
47636;BME280;33364;50.766;15.338;2022-10-17T05:00:01;95817.75;;;9.56;100.00
47636;BME280;33364;50.766;15.338;2022-10-17T05:02:26;95831.03;;;9.65;100.00
47636;BME280;33364;50.766;15.338;2022-10-17T05:04:52;95829.06;;;9.68;100.00
47636;BME280;33364;50.766;15.338;2022-10-17T05:07:17;95830.75;;;9.69;100.00
47636;BME280;33364;50.766;15.338;2022-10-17T05:09:43;95832.09;;;9.75;100.00
47636;BME280;33364;50.766;15.338;2022-10-17T05:12:09;95840.28;;;9.81;100.00
47636;BME280;33364;50.766;15.338;2022-10-17T05:14:34;95835.78;;;9.85;100.00
47636;BME280;33364;50.766;15.338;2022-10-17T05:17:00;95839.91;;;9.88;100.00
47636;BME280;33364;50.766;15.338;2022-10-17T05:19:25;95841.25;;;9.93;100.00
47636;BME280;33364;50.766;15.338;2022-10-17T05:21:51;95850.22;;;10.02;100.00
47636;BME280;33364;50.766;15.338;2022-10-17T05:24:16;95838.63;;;10.07;100.00
47636;BME280;33364;50.766;15.338;2022-10-17T05:26:42;95838.34;;;10.12;100.00
47636;BME280;33364;50.766;15.338;2022-10-17T05:29:08;95845.16;;;10.13;100.00
47636;BME280;33364;50.766;15.338;2022-10-17T05:31:34;95848.50;;;10.15;100.00
47636;BME280;33364;50.766;15.338;2022-10-17T05:34:00;95846.34;;;10.22;100.00
47636;BME280;33364;50.766;15.338;2022-10-17T05:36:27;95855.72;;;10.24;100.00
47636;BME280;33364;50.766;15.338;2022-10-17T05:38:52;95856.13;;;10.31;100.00
47636;BME280;33364;50.766;15.338;2022-10-17T05:41:18;95859.03;;;10.39;100.00
47636;BME280;33364;50.766;15.338;2022-10-17T05:43:44;95864.31;;;10.37;100.00
47636;BME280;33364;50.766;15.338;2022-10-17T05:46:10;95868.03;;;10.33;100.00
47636;BME280;33364;50.766;15.338;2022-10-17T05:48:36;95867.00;;;10.36;100.00
47636;BME280;33364;50.766;15.338;2022-10-17T05:51:05;95877.25;;;10.37;100.00
47636;BME280;33364;50.766;15.338;2022-10-17T05:53:34;95867.44;;;10.43;100.00
47636;BME280;33364;50.766;15.338;2022-10-17T05:56:02;95874.78;;;10.49;100.00
47636;BME280;33364;50.766;15.338;2022-10-17T05:58:29;95874.59;;;10.52;100.00
47636;BME280;33364;50.766;15.338;2022-10-17T06:00:59;95879.38;;;10.58;100.00
47636;BME280;33364;50.766;15.338;2022-10-17T06:03:25;95876.59;;;10.61;100.00
47636;BME280;33364;50.766;15.338;2022-10-17T06:05:50;95875.56;;;10.63;100.00
47636;BME280;33364;50.766;15.338;2022-10-17T06:08:17;95877.25;;;10.65;100.00
47636;BME280;33364;50.766;15.338;2022-10-17T06:10:42;95873.59;;;10.67;100.00
47636;BME280;33364;50.766;15.338;2022-10-17T06:13:08;95875.25;;;10.68;100.00
47636;BME280;33364;50.766;15.338;2022-10-17T06:15:34;95879.41;;;10.71;100.00
47636;BME280;33364;50.766;15.338;2022-10-17T06:18:00;95889.56;;;10.74;100.00
47636;BME280;33364;50.766;15.338;2022-10-17T06:20:25;95892.13;;;10.74;100.00
47636;BME280;33364;50.766;15.338;2022-10-17T06:22:51;95896.31;;;10.76;100.00
47636;BME280;33364;50.766;15.338;2022-10-17T06:25:16;95900.53;;;10.77;100.00
47636;BME280;33364;50.766;15.338;2022-10-17T06:27:42;95900.53;;;10.77;100.00
47636;BME280;33364;50.766;15.338;2022-10-17T06:30:08;95906.88;;;10.86;100.00
47636;BME280;33364;50.766;15.338;2022-10-17T06:32:33;95909.38;;;10.87;100.00
47636;BME280;33364;50.766;15.338;2022-10-17T06:34:59;95909.88;;;10.93;100.00
47636;BME280;33364;50.766;15.338;2022-10-17T06:37:24;95912.06;;;10.99;100.00
47636;BME280;33364;50.766;15.338;2022-10-17T06:39:50;95910.00;;;11.04;100.00
47636;BME280;33364;50.766;15.338;2022-10-17T06:42:16;95909.09;;;11.05;100.00
47636;BME280;33364;50.766;15.338;2022-10-17T06:44:41;95917.56;;;11.07;100.00
47636;BME280;33364;50.766;15.338;2022-10-17T06:47:08;95914.03;;;11.08;100.00
47636;BME280;33364;50.766;15.338;2022-10-17T06:49:34;95908.44;;;11.14;100.00
47636;BME280;33364;50.766;15.338;2022-10-17T06:51:59;95915.91;;;11.19;100.00
47636;BME280;33364;50.766;15.338;2022-10-17T06:54:25;95920.19;;;11.20;100.00
47636;BME280;33364;50.766;15.338;2022-10-17T06:56:52;95922.25;;;11.27;100.00
47636;BME280;33364;50.766;15.338;2022-10-17T06:59:18;95926.41;;;11.30;100.00
47636;BME280;33364;50.766;15.338;2022-10-17T07:01:44;95931.88;;;11.38;100.00
47636;BME280;33364;50.766;15.338;2022-10-17T07:04:09;95933.47;;;11.40;100.00
47636;BME280;33364;50.766;15.338;2022-10-17T07:06:36;95931.38;;;11.46;100.00
47636;BME280;33364;50.766;15.338;2022-10-17T07:09:03;95939.75;;;11.49;100.00
47636;BME280;33364;50.766;15.338;2022-10-17T07:11:32;95941.63;;;11.47;100.00
47636;BME280;33364;50.766;15.338;2022-10-17T07:13:58;95949.00;;;11.53;100.00
47636;BME280;33364;50.766;15.338;2022-10-17T07:16:24;95952.84;;;11.60;100.00
47636;BME280;33364;50.766;15.338;2022-10-17T07:18:50;95940.69;;;11.61;100.00
47636;BME280;33364;50.766;15.338;2022-10-17T07:21:16;95946.47;;;11.64;100.00
47636;BME280;33364;50.766;15.338;2022-10-17T07:23:41;95939.13;;;11.71;100.00
47636;BME280;33364;50.766;15.338;2022-10-17T07:26:10;95946.19;;;11.82;100.00
47636;BME280;33364;50.766;15.338;2022-10-17T07:28:38;95946.16;;;11.95;100.00
47636;BME280;33364;50.766;15.338;2022-10-17T07:31:06;95955.06;;;12.16;100.00
47636;BME280;33364;50.766;15.338;2022-10-17T07:33:32;95948.38;;;12.49;100.00
47636;BME280;33364;50.766;15.338;2022-10-17T07:35:59;95947.94;;;12.79;100.00
47636;BME280;33364;50.766;15.338;2022-10-17T07:38:25;95942.38;;;13.07;100.00
47636;BME280;33364;50.766;15.338;2022-10-17T07:40:55;95950.13;;;13.31;100.00
47636;BME280;33364;50.766;15.338;2022-10-17T07:43:22;95956.44;;;13.51;100.00
47636;BME280;33364;50.766;15.338;2022-10-17T07:45:48;95957.63;;;13.69;100.00
47636;BME280;33364;50.766;15.338;2022-10-17T07:48:14;95961.28;;;13.89;100.00
47636;BME280;33364;50.766;15.338;2022-10-17T07:50:39;95958.44;;;14.04;100.00
47636;BME280;33364;50.766;15.338;2022-10-17T07:53:05;95954.06;;;14.04;100.00
47636;BME280;33364;50.766;15.338;2022-10-17T07:55:30;95953.00;;;14.07;100.00
47636;BME280;33364;50.766;15.338;2022-10-17T07:57:56;95956.19;;;13.99;100.00
47636;BME280;33364;50.766;15.338;2022-10-17T08:00:25;95964.16;;;13.86;100.00
47636;BME280;33364;50.766;15.338;2022-10-17T08:02:51;95950.19;;;13.76;100.00
47636;BME280;33364;50.766;15.338;2022-10-17T08:05:16;95953.94;;;13.94;100.00
47636;BME280;33364;50.766;15.338;2022-10-17T08:07:42;95960.34;;;14.02;100.00
47636;BME280;33364;50.766;15.338;2022-10-17T08:10:09;95949.56;;;14.17;100.00
47636;BME280;33364;50.766;15.338;2022-10-17T08:12:35;95958.41;;;14.48;100.00
47636;BME280;33364;50.766;15.338;2022-10-17T08:15:01;95956.06;;;14.77;100.00
47636;BME280;33364;50.766;15.338;2022-10-17T08:17:27;95962.59;;;15.04;98.48
47636;BME280;33364;50.766;15.338;2022-10-17T08:19:53;95963.63;;;15.34;96.93
47636;BME280;33364;50.766;15.338;2022-10-17T08:22:19;95964.84;;;15.71;94.76
47636;BME280;33364;50.766;15.338;2022-10-17T08:24:46;95960.00;;;15.97;92.73
47636;BME280;33364;50.766;15.338;2022-10-17T08:27:12;95960.88;;;16.08;89.68
47636;BME280;33364;50.766;15.338;2022-10-17T08:29:38;95965.69;;;16.12;89.96
47636;BME280;33364;50.766;15.338;2022-10-17T08:32:05;95967.75;;;16.09;89.83
47636;BME280;33364;50.766;15.338;2022-10-17T08:34:31;95962.81;;;16.15;89.39
47636;BME280;33364;50.766;15.338;2022-10-17T08:36:57;95965.47;;;15.94;88.48
47636;BME280;33364;50.766;15.338;2022-10-17T08:39:23;95972.47;;;15.63;89.98
47636;BME280;33364;50.766;15.338;2022-10-17T08:47:33;95958.66;;;16.03;94.29
47636;BME280;33364;50.766;15.338;2022-10-17T08:50:02;95956.16;;;16.51;91.89
47636;BME280;33364;50.766;15.338;2022-10-17T08:52:34;95969.19;;;16.82;86.12
47636;BME280;33364;50.766;15.338;2022-10-17T08:55:03;95966.13;;;17.06;87.43
47636;BME280;33364;50.766;15.338;2022-10-17T08:57:29;95973.16;;;17.15;85.43
47636;BME280;33364;50.766;15.338;2022-10-17T08:59:54;95967.91;;;17.25;85.47
47636;BME280;33364;50.766;15.338;2022-10-17T09:02:43;95968.94;;;17.61;85.31
47636;BME280;33364;50.766;15.338;2022-10-17T09:08:36;95969.28;;;18.05;81.62
47636;BME280;33364;50.766;15.338;2022-10-17T09:14:31;95968.38;;;18.24;80.95
47636;BME280;33364;50.766;15.338;2022-10-17T09:19:56;95963.16;;;18.14;80.45
47636;BME280;33364;50.766;15.338;2022-10-17T09:22:24;95968.91;;;18.27;80.58
47636;BME280;33364;50.766;15.338;2022-10-17T09:24:58;95971.59;;;18.35;80.86
47636;BME280;33364;50.766;15.338;2022-10-17T09:27:46;95962.59;;;18.48;81.14
47636;BME280;33364;50.766;15.338;2022-10-17T09:30:37;95963.03;;;18.61;78.02
47636;BME280;33364;50.766;15.338;2022-10-17T09:35:40;95967.91;;;18.56;79.39
47636;BME280;33364;50.766;15.338;2022-10-17T09:38:13;95968.94;;;18.91;80.30
47636;BME280;33364;50.766;15.338;2022-10-17T09:40:39;95967.28;;;19.25;76.08
47636;BME280;33364;50.766;15.338;2022-10-17T09:43:06;95965.75;;;19.58;77.17
47636;BME280;33364;50.766;15.338;2022-10-17T09:45:42;95969.84;;;19.79;75.50
47636;BME280;33364;50.766;15.338;2022-10-17T09:48:50;95973.03;;;19.90;74.45
47636;BME280;33364;50.766;15.338;2022-10-17T09:51:18;95963.09;;;20.10;75.18
47636;BME280;33364;50.766;15.338;2022-10-17T09:53:48;95968.25;;;20.20;72.57
47636;BME280;33364;50.766;15.338;2022-10-17T09:56:18;95962.56;;;20.41;73.40
47636;BME280;33364;50.766;15.338;2022-10-17T09:58:46;95958.34;;;20.48;71.36
47636;BME280;33364;50.766;15.338;2022-10-17T10:01:21;95963.59;;;20.48;74.36
47636;BME280;33364;50.766;15.338;2022-10-17T10:03:48;95965.97;;;20.59;72.60
47636;BME280;33364;50.766;15.338;2022-10-17T10:06:32;95959.44;;;20.80;74.48
47636;BME280;33364;50.766;15.338;2022-10-17T10:08:58;95963.72;;;20.97;71.96
47636;BME280;33364;50.766;15.338;2022-10-17T10:11:49;95958.47;;;21.13;71.32
47636;BME280;33364;50.766;15.338;2022-10-17T10:14:28;95963.75;;;21.30;72.06
47636;BME280;33364;50.766;15.338;2022-10-17T10:16:54;95961.63;;;21.09;69.52
47636;BME280;33364;50.766;15.338;2022-10-17T10:19:35;95958.78;;;21.02;69.50
47636;BME280;33364;50.766;15.338;2022-10-17T10:22:13;95959.44;;;20.80;69.46
47636;BME280;33364;50.766;15.338;2022-10-17T10:24:39;95959.75;;;20.77;72.11
47636;BME280;33364;50.766;15.338;2022-10-17T10:27:05;95949.25;;;20.85;70.05
47636;BME280;33364;50.766;15.338;2022-10-17T10:29:47;95955.28;;;20.77;71.49
47636;BME280;33364;50.766;15.338;2022-10-17T10:32:27;95952.53;;;20.95;71.81
47636;BME280;33364;50.766;15.338;2022-10-17T10:35:00;95957.84;;;21.19;69.15
47636;BME280;33364;50.766;15.338;2022-10-17T10:40:21;95951.09;;;21.09;71.65
47636;BME280;33364;50.766;15.338;2022-10-17T10:42:50;95946.63;;;21.26;69.23
47636;BME280;33364;50.766;15.338;2022-10-17T10:45:23;95948.94;;;21.29;69.54
47636;BME280;33364;50.766;15.338;2022-10-17T10:47:51;95946.00;;;21.32;69.81
47636;BME280;33364;50.766;15.338;2022-10-17T10:55:55;95955.16;;;21.77;70.94
47636;BME280;33364;50.766;15.338;2022-10-17T10:58:32;95950.84;;;21.84;68.68
47636;BME280;33364;50.766;15.338;2022-10-17T11:01:04;95958.31;;;21.80;69.69
47636;BME280;33364;50.766;15.338;2022-10-17T11:04:00;95949.91;;;21.68;68.79
47636;BME280;33364;50.766;15.338;2022-10-17T11:06:35;95951.53;;;21.94;68.77
47636;BME280;33364;50.766;15.338;2022-10-17T11:11:39;95943.41;;;22.04;67.00
47636;BME280;33364;50.766;15.338;2022-10-17T11:14:27;95942.81;;;22.33;67.89
47636;BME280;33364;50.766;15.338;2022-10-17T11:18:09;95943.44;;;22.43;63.99
47636;BME280;33364;50.766;15.338;2022-10-17T11:22:46;95941.31;;;22.38;66.15
47636;BME280;33364;50.766;15.338;2022-10-17T11:25:35;95942.13;;;22.39;65.13
47636;BME280;33364;50.766;15.338;2022-10-17T11:28:07;95924.75;;;22.53;65.71
47636;BME280;33364;50.766;15.338;2022-10-17T11:33:27;95930.91;;;22.76;64.54
47636;BME280;33364;50.766;15.338;2022-10-17T11:35:58;95925.97;;;22.73;64.59
47636;BME280;33364;50.766;15.338;2022-10-17T11:38:42;95924.91;;;22.59;68.28
47636;BME280;33364;50.766;15.338;2022-10-17T11:41:14;95923.03;;;22.68;65.89
47636;BME280;33364;50.766;15.338;2022-10-17T11:43:56;95925.09;;;22.81;66.27
47636;BME280;33364;50.766;15.338;2022-10-17T11:46:24;95928.22;;;22.84;68.46
47636;BME280;33364;50.766;15.338;2022-10-17T11:49:14;95928.59;;;22.73;66.19
47636;BME280;33364;50.766;15.338;2022-10-17T11:55:02;95925.53;;;22.61;66.75
47636;BME280;33364;50.766;15.338;2022-10-17T12:00:30;95925.50;;;22.69;67.12
47636;BME280;33364;50.766;15.338;2022-10-17T12:03:04;95923.91;;;22.60;66.37
47636;BME280;33364;50.766;15.338;2022-10-17T12:05:51;95925.81;;;22.74;64.32
47636;BME280;33364;50.766;15.338;2022-10-17T12:11:33;95911.56;;;23.30;61.07
47636;BME280;33364;50.766;15.338;2022-10-17T12:17:03;95904.94;;;23.11;60.75
47636;BME280;33364;50.766;15.338;2022-10-17T12:19:31;95900.63;;;22.95;55.19
47636;BME280;33364;50.766;15.338;2022-10-17T12:22:02;95911.53;;;22.84;54.61
47636;BME280;33364;50.766;15.338;2022-10-17T12:27:30;95910.09;;;23.27;50.93
47636;BME280;33364;50.766;15.338;2022-10-17T12:30:02;95908.50;;;23.18;52.16
47636;BME280;33364;50.766;15.338;2022-10-17T12:32:28;95900.81;;;23.08;53.09
47636;BME280;33364;50.766;15.338;2022-10-17T12:34:55;95902.59;;;22.93;53.43
47636;BME280;33364;50.766;15.338;2022-10-17T12:45:58;95902.00;;;22.52;54.66
47636;BME280;33364;50.766;15.338;2022-10-17T12:51:10;95907.38;;;22.35;57.12
47636;BME280;33364;50.766;15.338;2022-10-17T12:56:35;95901.66;;;22.23;53.77
47636;BME280;33364;50.766;15.338;2022-10-17T13:01:38;95899.47;;;22.66;52.26
47636;BME280;33364;50.766;15.338;2022-10-17T13:04:08;95895.78;;;22.75;51.88
47636;BME280;33364;50.766;15.338;2022-10-17T13:06:38;95897.69;;;22.82;54.32
47636;BME280;33364;50.766;15.338;2022-10-17T13:11:48;95888.38;;;22.71;54.69
47636;BME280;33364;50.766;15.338;2022-10-17T13:14:16;95888.56;;;22.69;53.69
47636;BME280;33364;50.766;15.338;2022-10-17T13:16:56;95899.13;;;22.69;55.67
47636;BME280;33364;50.766;15.338;2022-10-17T13:19:25;95898.53;;;22.59;54.45
47636;BME280;33364;50.766;15.338;2022-10-17T13:21:56;95899.19;;;22.22;55.30
47636;BME280;33364;50.766;15.338;2022-10-17T13:26:57;95894.66;;;22.00;53.08
47636;BME280;33364;50.766;15.338;2022-10-17T13:29:24;95895.00;;;21.96;54.98
47636;BME280;33364;50.766;15.338;2022-10-17T13:31:56;95885.56;;;22.10;55.45
47636;BME280;33364;50.766;15.338;2022-10-17T13:34:26;95889.53;;;22.06;53.70
47636;BME280;33364;50.766;15.338;2022-10-17T13:36:54;95886.28;;;21.88;58.12
47636;BME280;33364;50.766;15.338;2022-10-17T13:39:23;95885.63;;;21.30;60.61
47636;BME280;33364;50.766;15.338;2022-10-17T13:41:50;95876.22;;;20.95;61.57
47636;BME280;33364;50.766;15.338;2022-10-17T13:44:19;95889.69;;;20.76;61.27
47636;BME280;33364;50.766;15.338;2022-10-17T13:46:46;95882.13;;;20.81;60.56
47636;BME280;33364;50.766;15.338;2022-10-17T13:49:21;95878.84;;;20.71;63.59
47636;BME280;33364;50.766;15.338;2022-10-17T13:51:50;95878.00;;;20.54;63.04
47636;BME280;33364;50.766;15.338;2022-10-17T13:54:38;95869.13;;;20.55;61.90
47636;BME280;33364;50.766;15.338;2022-10-17T13:57:15;95870.63;;;20.65;63.20
47636;BME280;33364;50.766;15.338;2022-10-17T13:59:42;95868.16;;;20.72;63.11
47636;BME280;33364;50.766;15.338;2022-10-17T14:02:20;95870.44;;;20.51;62.82
47636;BME280;33364;50.766;15.338;2022-10-17T14:04:46;95870.50;;;20.33;64.29
47636;BME280;33364;50.766;15.338;2022-10-17T14:07:51;95868.06;;;20.23;65.44
47636;BME280;33364;50.766;15.338;2022-10-17T14:10:22;95871.97;;;20.27;65.07
47636;BME280;33364;50.766;15.338;2022-10-17T14:12:50;95871.00;;;20.20;64.63
47636;BME280;33364;50.766;15.338;2022-10-17T14:15:17;95863.22;;;20.10;64.25
47636;BME280;33364;50.766;15.338;2022-10-17T14:17:44;95869.44;;;20.01;64.56
47636;BME280;33364;50.766;15.338;2022-10-17T14:20:18;95859.63;;;20.03;65.79
47636;BME280;33364;50.766;15.338;2022-10-17T14:22:45;95863.66;;;19.89;66.43
47636;BME280;33364;50.766;15.338;2022-10-17T14:25:33;95861.16;;;19.80;66.94
47636;BME280;33364;50.766;15.338;2022-10-17T14:28:10;95867.19;;;19.46;67.92
47636;BME280;33364;50.766;15.338;2022-10-17T14:33:20;95864.72;;;18.93;70.28
47636;BME280;33364;50.766;15.338;2022-10-17T14:35:55;95873.03;;;18.88;70.76
47636;BME280;33364;50.766;15.338;2022-10-17T14:38:22;95869.72;;;18.86;70.55
47636;BME280;33364;50.766;15.338;2022-10-17T14:40:51;95872.88;;;18.72;71.01